sensor_id;sensor_type;location;lat;lon;timestamp;P1;durP1;ratioP1;P2;durP2;ratioP2
3197;SDS011;1611;49.394;11.136;2023-03-03T00:00:40;40.88;;;19.15;;
3197;SDS011;1611;49.394;11.136;2023-03-03T00:03:07;34.53;;;16.92;;
3197;SDS011;1611;49.394;11.136;2023-03-03T00:05:36;39.03;;;17.10;;
3197;SDS011;1611;49.394;11.136;2023-03-03T00:08:03;34.63;;;16.83;;
3197;SDS011;1611;49.394;11.136;2023-03-03T00:10:30;39.05;;;17.67;;
3197;SDS011;1611;49.394;11.136;2023-03-03T00:12:58;34.00;;;17.50;;
3197;SDS011;1611;49.394;11.136;2023-03-03T00:15:25;39.88;;;19.10;;
3197;SDS011;1611;49.394;11.136;2023-03-03T00:17:53;30.45;;;16.55;;
3197;SDS011;1611;49.394;11.136;2023-03-03T00:20:28;38.78;;;18.50;;
3197;SDS011;1611;49.394;11.136;2023-03-03T00:23:05;29.73;;;16.48;;
3197;SDS011;1611;49.394;11.136;2023-03-03T00:25:44;26.48;;;15.77;;
3197;SDS011;1611;49.394;11.136;2023-03-03T00:28:24;30.73;;;17.20;;
3197;SDS011;1611;49.394;11.136;2023-03-03T00:30:53;35.63;;;17.73;;
3197;SDS011;1611;49.394;11.136;2023-03-03T00:33:24;37.90;;;18.05;;
3197;SDS011;1611;49.394;11.136;2023-03-03T00:35:53;43.30;;;17.10;;
3197;SDS011;1611;49.394;11.136;2023-03-03T00:38:21;34.38;;;18.75;;
3197;SDS011;1611;49.394;11.136;2023-03-03T00:40:48;44.65;;;18.80;;
3197;SDS011;1611;49.394;11.136;2023-03-03T00:43:17;33.45;;;18.50;;
3197;SDS011;1611;49.394;11.136;2023-03-03T00:45:47;37.92;;;18.77;;
3197;SDS011;1611;49.394;11.136;2023-03-03T00:48:24;38.33;;;19.15;;
3197;SDS011;1611;49.394;11.136;2023-03-03T00:50:53;42.03;;;18.55;;
3197;SDS011;1611;49.394;11.136;2023-03-03T00:53:22;38.22;;;17.17;;
3197;SDS011;1611;49.394;11.136;2023-03-03T00:55:50;39.55;;;19.58;;
3197;SDS011;1611;49.394;11.136;2023-03-03T00:58:19;32.58;;;19.10;;
3197;SDS011;1611;49.394;11.136;2023-03-03T01:00:48;35.90;;;19.95;;
3197;SDS011;1611;49.394;11.136;2023-03-03T01:03:16;42.50;;;20.20;;
3197;SDS011;1611;49.394;11.136;2023-03-03T01:05:44;33.67;;;18.90;;
3197;SDS011;1611;49.394;11.136;2023-03-03T01:08:12;38.67;;;19.42;;
3197;SDS011;1611;49.394;11.136;2023-03-03T01:10:40;34.42;;;17.40;;
3197;SDS011;1611;49.394;11.136;2023-03-03T01:13:09;36.42;;;18.45;;
3197;SDS011;1611;49.394;11.136;2023-03-03T01:15:38;38.00;;;20.35;;
3197;SDS011;1611;49.394;11.136;2023-03-03T01:18:05;41.17;;;18.50;;
3197;SDS011;1611;49.394;11.136;2023-03-03T01:20:32;37.25;;;18.77;;
3197;SDS011;1611;49.394;11.136;2023-03-03T01:22:59;36.95;;;18.67;;
3197;SDS011;1611;49.394;11.136;2023-03-03T01:25:26;36.70;;;20.08;;
3197;SDS011;1611;49.394;11.136;2023-03-03T01:27:53;41.20;;;21.25;;
3197;SDS011;1611;49.394;11.136;2023-03-03T01:30:20;38.42;;;19.02;;
3197;SDS011;1611;49.394;11.136;2023-03-03T01:32:48;37.83;;;20.13;;
3197;SDS011;1611;49.394;11.136;2023-03-03T01:35:15;36.88;;;18.55;;
3197;SDS011;1611;49.394;11.136;2023-03-03T01:37:43;34.35;;;19.38;;
3197;SDS011;1611;49.394;11.136;2023-03-03T01:40:12;39.75;;;18.88;;
3197;SDS011;1611;49.394;11.136;2023-03-03T01:42:42;36.53;;;19.00;;
3197;SDS011;1611;49.394;11.136;2023-03-03T01:45:10;40.65;;;19.52;;
3197;SDS011;1611;49.394;11.136;2023-03-03T01:47:40;35.50;;;18.10;;
3197;SDS011;1611;49.394;11.136;2023-03-03T01:50:11;32.53;;;17.25;;
3197;SDS011;1611;49.394;11.136;2023-03-03T01:52:41;36.22;;;18.73;;
3197;SDS011;1611;49.394;11.136;2023-03-03T01:55:12;32.22;;;17.60;;
3197;SDS011;1611;49.394;11.136;2023-03-03T01:57:42;31.20;;;17.48;;
3197;SDS011;1611;49.394;11.136;2023-03-03T02:00:12;34.97;;;17.15;;
3197;SDS011;1611;49.394;11.136;2023-03-03T02:02:40;37.15;;;19.55;;
3197;SDS011;1611;49.394;11.136;2023-03-03T02:05:08;34.97;;;18.35;;
3197;SDS011;1611;49.394;11.136;2023-03-03T02:07:36;31.77;;;18.48;;
3197;SDS011;1611;49.394;11.136;2023-03-03T02:10:04;41.88;;;19.40;;
3197;SDS011;1611;49.394;11.136;2023-03-03T02:12:35;39.75;;;19.65;;
3197;SDS011;1611;49.394;11.136;2023-03-03T02:15:10;38.88;;;20.35;;
3197;SDS011;1611;49.394;11.136;2023-03-03T02:17:41;36.33;;;18.40;;
3197;SDS011;1611;49.394;11.136;2023-03-03T02:20:10;36.95;;;18.92;;
3197;SDS011;1611;49.394;11.136;2023-03-03T02:22:50;38.83;;;20.05;;
3197;SDS011;1611;49.394;11.136;2023-03-03T02:25:24;39.47;;;19.75;;
3197;SDS011;1611;49.394;11.136;2023-03-03T02:27:57;47.80;;;19.83;;
3197;SDS011;1611;49.394;11.136;2023-03-03T02:30:25;35.53;;;19.10;;
3197;SDS011;1611;49.394;11.136;2023-03-03T02:32:52;35.85;;;19.08;;
3197;SDS011;1611;49.394;11.136;2023-03-03T02:35:26;39.97;;;20.38;;
3197;SDS011;1611;49.394;11.136;2023-03-03T02:37:56;36.20;;;18.52;;
3197;SDS011;1611;49.394;11.136;2023-03-03T02:40:30;37.92;;;19.45;;
3197;SDS011;1611;49.394;11.136;2023-03-03T02:43:03;42.00;;;20.02;;
3197;SDS011;1611;49.394;11.136;2023-03-03T02:45:32;40.55;;;20.52;;
3197;SDS011;1611;49.394;11.136;2023-03-03T02:47:58;39.97;;;20.45;;
3197;SDS011;1611;49.394;11.136;2023-03-03T02:50:25;44.40;;;21.40;;
3197;SDS011;1611;49.394;11.136;2023-03-03T02:52:52;38.17;;;19.15;;
3197;SDS011;1611;49.394;11.136;2023-03-03T02:55:19;38.38;;;20.50;;
3197;SDS011;1611;49.394;11.136;2023-03-03T02:57:45;43.92;;;21.67;;
3197;SDS011;1611;49.394;11.136;2023-03-03T03:00:14;42.08;;;21.80;;
3197;SDS011;1611;49.394;11.136;2023-03-03T03:02:41;43.20;;;21.10;;
3197;SDS011;1611;49.394;11.136;2023-03-03T03:05:08;40.28;;;18.63;;
3197;SDS011;1611;49.394;11.136;2023-03-03T03:07:34;39.33;;;20.20;;
3197;SDS011;1611;49.394;11.136;2023-03-03T03:10:01;47.50;;;21.25;;
3197;SDS011;1611;49.394;11.136;2023-03-03T03:12:28;46.80;;;21.58;;
3197;SDS011;1611;49.394;11.136;2023-03-03T03:14:55;37.33;;;20.52;;
3197;SDS011;1611;49.394;11.136;2023-03-03T03:17:23;43.55;;;19.27;;
3197;SDS011;1611;49.394;11.136;2023-03-03T03:19:50;37.35;;;19.00;;
3197;SDS011;1611;49.394;11.136;2023-03-03T03:22:17;37.85;;;20.63;;
3197;SDS011;1611;49.394;11.136;2023-03-03T03:24:44;38.20;;;19.35;;
3197;SDS011;1611;49.394;11.136;2023-03-03T03:27:11;44.17;;;21.58;;
3197;SDS011;1611;49.394;11.136;2023-03-03T03:29:38;41.28;;;21.17;;
3197;SDS011;1611;49.394;11.136;2023-03-03T03:32:04;47.85;;;22.52;;
3197;SDS011;1611;49.394;11.136;2023-03-03T03:34:33;45.85;;;22.50;;
3197;SDS011;1611;49.394;11.136;2023-03-03T03:36:59;42.67;;;20.90;;
3197;SDS011;1611;49.394;11.136;2023-03-03T03:39:26;35.22;;;18.70;;
3197;SDS011;1611;49.394;11.136;2023-03-03T03:41:53;44.45;;;19.90;;
3197;SDS011;1611;49.394;11.136;2023-03-03T03:44:20;43.20;;;20.55;;
3197;SDS011;1611;49.394;11.136;2023-03-03T03:46:49;41.28;;;20.83;;
3197;SDS011;1611;49.394;11.136;2023-03-03T03:49:16;38.00;;;19.10;;
3197;SDS011;1611;49.394;11.136;2023-03-03T03:51:44;45.17;;;21.08;;
3197;SDS011;1611;49.394;11.136;2023-03-03T03:54:10;39.10;;;19.92;;
3197;SDS011;1611;49.394;11.136;2023-03-03T03:56:37;38.53;;;20.55;;
3197;SDS011;1611;49.394;11.136;2023-03-03T03:59:04;45.25;;;20.83;;
3197;SDS011;1611;49.394;11.136;2023-03-03T04:01:32;38.22;;;19.38;;
3197;SDS011;1611;49.394;11.136;2023-03-03T04:03:58;35.13;;;18.80;;
3197;SDS011;1611;49.394;11.136;2023-03-03T04:06:25;43.17;;;21.38;;
3197;SDS011;1611;49.394;11.136;2023-03-03T04:08:53;38.80;;;19.98;;
3197;SDS011;1611;49.394;11.136;2023-03-03T04:11:20;40.03;;;18.83;;
3197;SDS011;1611;49.394;11.136;2023-03-03T04:13:47;42.10;;;20.98;;
3197;SDS011;1611;49.394;11.136;2023-03-03T04:16:14;49.60;;;21.55;;
3197;SDS011;1611;49.394;11.136;2023-03-03T04:18:41;44.47;;;21.63;;
3197;SDS011;1611;49.394;11.136;2023-03-03T04:21:10;40.53;;;20.80;;
3197;SDS011;1611;49.394;11.136;2023-03-03T04:23:37;46.50;;;19.42;;
3197;SDS011;1611;49.394;11.136;2023-03-03T04:26:06;40.88;;;19.85;;
3197;SDS011;1611;49.394;11.136;2023-03-03T04:28:33;48.72;;;22.42;;
3197;SDS011;1611;49.394;11.136;2023-03-03T04:30:59;42.15;;;20.15;;
3197;SDS011;1611;49.394;11.136;2023-03-03T04:33:27;34.15;;;19.05;;
3197;SDS011;1611;49.394;11.136;2023-03-03T04:35:53;39.67;;;20.83;;
3197;SDS011;1611;49.394;11.136;2023-03-03T04:38:20;44.05;;;20.58;;
3197;SDS011;1611;49.394;11.136;2023-03-03T04:40:47;43.90;;;21.48;;
3197;SDS011;1611;49.394;11.136;2023-03-03T04:43:15;36.03;;;19.33;;
3197;SDS011;1611;49.394;11.136;2023-03-03T04:45:42;42.65;;;20.75;;
3197;SDS011;1611;49.394;11.136;2023-03-03T04:48:09;40.20;;;19.67;;
3197;SDS011;1611;49.394;11.136;2023-03-03T04:50:36;35.08;;;19.05;;
3197;SDS011;1611;49.394;11.136;2023-03-03T04:53:03;48.25;;;20.17;;
3197;SDS011;1611;49.394;11.136;2023-03-03T04:55:29;36.55;;;18.58;;
3197;SDS011;1611;49.394;11.136;2023-03-03T04:57:56;40.67;;;19.92;;
3197;SDS011;1611;49.394;11.136;2023-03-03T05:00:24;42.10;;;20.58;;
3197;SDS011;1611;49.394;11.136;2023-03-03T05:02:51;41.97;;;20.45;;
3197;SDS011;1611;49.394;11.136;2023-03-03T05:05:18;42.65;;;21.13;;
3197;SDS011;1611;49.394;11.136;2023-03-03T05:07:45;39.58;;;21.00;;
3197;SDS011;1611;49.394;11.136;2023-03-03T05:10:11;41.55;;;21.92;;
3197;SDS011;1611;49.394;11.136;2023-03-03T05:12:38;41.20;;;21.08;;
3197;SDS011;1611;49.394;11.136;2023-03-03T05:15:06;41.78;;;22.27;;
3197;SDS011;1611;49.394;11.136;2023-03-03T05:17:34;43.35;;;20.38;;
3197;SDS011;1611;49.394;11.136;2023-03-03T05:20:02;42.63;;;20.80;;
3197;SDS011;1611;49.394;11.136;2023-03-03T05:22:29;37.97;;;20.02;;
3197;SDS011;1611;49.394;11.136;2023-03-03T05:24:56;41.42;;;20.05;;
3197;SDS011;1611;49.394;11.136;2023-03-03T05:27:23;41.90;;;22.02;;
3197;SDS011;1611;49.394;11.136;2023-03-03T05:29:50;48.67;;;21.00;;
3197;SDS011;1611;49.394;11.136;2023-03-03T05:32:16;44.58;;;20.65;;
3197;SDS011;1611;49.394;11.136;2023-03-03T05:34:44;49.13;;;22.02;;
3197;SDS011;1611;49.394;11.136;2023-03-03T05:37:11;40.75;;;20.13;;
3197;SDS011;1611;49.394;11.136;2023-03-03T05:39:39;46.60;;;21.10;;
3197;SDS011;1611;49.394;11.136;2023-03-03T05:42:08;43.33;;;20.60;;
3197;SDS011;1611;49.394;11.136;2023-03-03T05:44:37;48.30;;;21.75;;
3197;SDS011;1611;49.394;11.136;2023-03-03T05:47:04;45.55;;;21.80;;
3197;SDS011;1611;49.394;11.136;2023-03-03T05:49:31;38.55;;;20.80;;
3197;SDS011;1611;49.394;11.136;2023-03-03T05:51:59;42.22;;;20.20;;
3197;SDS011;1611;49.394;11.136;2023-03-03T05:54:26;51.50;;;21.55;;
3197;SDS011;1611;49.394;11.136;2023-03-03T05:56:52;41.58;;;20.10;;
3197;SDS011;1611;49.394;11.136;2023-03-03T05:59:21;49.17;;;22.33;;
3197;SDS011;1611;49.394;11.136;2023-03-03T06:01:48;44.83;;;19.25;;
3197;SDS011;1611;49.394;11.136;2023-03-03T06:04:14;40.85;;;20.05;;
3197;SDS011;1611;49.394;11.136;2023-03-03T06:06:41;42.63;;;19.80;;
3197;SDS011;1611;49.394;11.136;2023-03-03T06:09:10;33.58;;;18.50;;
3197;SDS011;1611;49.394;11.136;2023-03-03T06:11:36;45.38;;;21.33;;
3197;SDS011;1611;49.394;11.136;2023-03-03T06:14:03;39.03;;;20.38;;
3197;SDS011;1611;49.394;11.136;2023-03-03T06:16:30;41.53;;;19.90;;
3197;SDS011;1611;49.394;11.136;2023-03-03T06:18:57;46.45;;;21.45;;
3197;SDS011;1611;49.394;11.136;2023-03-03T06:21:25;43.08;;;20.92;;
3197;SDS011;1611;49.394;11.136;2023-03-03T06:23:51;39.45;;;19.88;;
3197;SDS011;1611;49.394;11.136;2023-03-03T06:26:19;38.33;;;18.83;;
3197;SDS011;1611;49.394;11.136;2023-03-03T06:28:47;37.22;;;19.83;;
3197;SDS011;1611;49.394;11.136;2023-03-03T06:31:14;40.70;;;21.73;;
3197;SDS011;1611;49.394;11.136;2023-03-03T06:33:41;39.53;;;20.50;;
3197;SDS011;1611;49.394;11.136;2023-03-03T06:36:07;40.83;;;20.05;;
3197;SDS011;1611;49.394;11.136;2023-03-03T06:38:35;40.20;;;20.67;;
3197;SDS011;1611;49.394;11.136;2023-03-03T06:41:01;43.58;;;19.50;;
3197;SDS011;1611;49.394;11.136;2023-03-03T06:43:32;41.58;;;18.95;;
3197;SDS011;1611;49.394;11.136;2023-03-03T06:45:59;44.90;;;21.55;;
3197;SDS011;1611;49.394;11.136;2023-03-03T06:48:26;37.45;;;20.38;;
3197;SDS011;1611;49.394;11.136;2023-03-03T06:50:53;45.70;;;22.00;;
3197;SDS011;1611;49.394;11.136;2023-03-03T06:53:19;42.20;;;21.10;;
3197;SDS011;1611;49.394;11.136;2023-03-03T06:55:46;39.95;;;20.58;;
3197;SDS011;1611;49.394;11.136;2023-03-03T06:58:14;42.97;;;21.38;;
3197;SDS011;1611;49.394;11.136;2023-03-03T07:00:43;44.90;;;20.80;;
3197;SDS011;1611;49.394;11.136;2023-03-03T07:03:11;37.38;;;19.88;;
3197;SDS011;1611;49.394;11.136;2023-03-03T07:05:40;40.40;;;20.80;;
3197;SDS011;1611;49.394;11.136;2023-03-03T07:08:09;52.30;;;23.85;;
3197;SDS011;1611;49.394;11.136;2023-03-03T07:10:40;38.58;;;21.17;;
3197;SDS011;1611;49.394;11.136;2023-03-03T07:13:15;48.97;;;24.92;;
3197;SDS011;1611;49.394;11.136;2023-03-03T07:15:46;43.80;;;22.48;;
3197;SDS011;1611;49.394;11.136;2023-03-03T07:18:21;45.40;;;24.30;;
3197;SDS011;1611;49.394;11.136;2023-03-03T07:21:07;50.38;;;24.95;;
3197;SDS011;1611;49.394;11.136;2023-03-03T07:23:41;48.15;;;24.33;;
3197;SDS011;1611;49.394;11.136;2023-03-03T07:26:11;46.10;;;24.88;;
3197;SDS011;1611;49.394;11.136;2023-03-03T07:28:40;46.60;;;22.77;;
3197;SDS011;1611;49.394;11.136;2023-03-03T07:31:28;47.35;;;24.65;;
3197;SDS011;1611;49.394;11.136;2023-03-03T07:33:59;43.65;;;23.08;;
3197;SDS011;1611;49.394;11.136;2023-03-03T07:36:27;45.40;;;23.73;;
3197;SDS011;1611;49.394;11.136;2023-03-03T07:38:56;50.20;;;25.25;;
3197;SDS011;1611;49.394;11.136;2023-03-03T07:41:25;57.45;;;26.13;;
3197;SDS011;1611;49.394;11.136;2023-03-03T07:43:53;47.78;;;23.50;;
3197;SDS011;1611;49.394;11.136;2023-03-03T07:46:26;44.03;;;22.83;;
3197;SDS011;1611;49.394;11.136;2023-03-03T07:48:59;44.70;;;23.98;;
3197;SDS011;1611;49.394;11.136;2023-03-03T07:51:28;45.28;;;24.10;;
3197;SDS011;1611;49.394;11.136;2023-03-03T07:54:11;52.63;;;23.35;;
3197;SDS011;1611;49.394;11.136;2023-03-03T07:56:43;53.60;;;25.13;;
3197;SDS011;1611;49.394;11.136;2023-03-03T07:59:15;45.65;;;23.45;;
3197;SDS011;1611;49.394;11.136;2023-03-03T08:01:52;45.58;;;24.08;;
3197;SDS011;1611;49.394;11.136;2023-03-03T08:04:22;54.40;;;26.20;;
3197;SDS011;1611;49.394;11.136;2023-03-03T08:06:53;52.80;;;26.70;;
3197;SDS011;1611;49.394;11.136;2023-03-03T08:09:43;49.72;;;24.17;;
3197;SDS011;1611;49.394;11.136;2023-03-03T08:15:16;62.58;;;25.55;;
3197;SDS011;1611;49.394;11.136;2023-03-03T08:17:47;48.92;;;23.85;;
3197;SDS011;1611;49.394;11.136;2023-03-03T08:23:11;50.80;;;25.92;;
3197;SDS011;1611;49.394;11.136;2023-03-03T08:25:38;52.95;;;25.90;;
3197;SDS011;1611;49.394;11.136;2023-03-03T08:28:07;58.33;;;25.90;;
3197;SDS011;1611;49.394;11.136;2023-03-03T08:30:34;48.10;;;25.83;;
3197;SDS011;1611;49.394;11.136;2023-03-03T08:33:02;47.63;;;24.60;;
3197;SDS011;1611;49.394;11.136;2023-03-03T08:35:29;52.90;;;27.73;;
3197;SDS011;1611;49.394;11.136;2023-03-03T08:37:56;53.03;;;26.73;;
3197;SDS011;1611;49.394;11.136;2023-03-03T08:40:22;48.15;;;24.90;;
3197;SDS011;1611;49.394;11.136;2023-03-03T08:42:49;54.63;;;26.35;;
3197;SDS011;1611;49.394;11.136;2023-03-03T08:45:16;63.08;;;27.27;;
3197;SDS011;1611;49.394;11.136;2023-03-03T08:47:43;52.92;;;25.98;;
3197;SDS011;1611;49.394;11.136;2023-03-03T08:50:11;58.13;;;27.90;;
3197;SDS011;1611;49.394;11.136;2023-03-03T08:52:38;51.97;;;25.90;;
3197;SDS011;1611;49.394;11.136;2023-03-03T08:55:05;56.95;;;25.95;;
3197;SDS011;1611;49.394;11.136;2023-03-03T08:57:32;50.42;;;25.17;;
3197;SDS011;1611;49.394;11.136;2023-03-03T08:59:59;47.85;;;25.27;;
3197;SDS011;1611;49.394;11.136;2023-03-03T09:02:26;46.85;;;25.13;;
3197;SDS011;1611;49.394;11.136;2023-03-03T09:04:53;54.35;;;26.13;;
3197;SDS011;1611;49.394;11.136;2023-03-03T09:07:21;47.58;;;25.67;;
3197;SDS011;1611;49.394;11.136;2023-03-03T09:09:47;49.38;;;25.10;;
3197;SDS011;1611;49.394;11.136;2023-03-03T09:12:15;48.15;;;26.13;;
3197;SDS011;1611;49.394;11.136;2023-03-03T09:14:44;58.20;;;28.00;;
3197;SDS011;1611;49.394;11.136;2023-03-03T09:17:18;52.58;;;26.25;;
3197;SDS011;1611;49.394;11.136;2023-03-03T09:19:50;46.97;;;25.80;;
3197;SDS011;1611;49.394;11.136;2023-03-03T09:22:18;48.50;;;24.02;;
3197;SDS011;1611;49.394;11.136;2023-03-03T09:24:49;44.80;;;24.95;;
3197;SDS011;1611;49.394;11.136;2023-03-03T09:27:18;51.80;;;26.00;;
3197;SDS011;1611;49.394;11.136;2023-03-03T09:29:52;51.03;;;24.45;;
3197;SDS011;1611;49.394;11.136;2023-03-03T09:32:28;54.85;;;26.50;;
3197;SDS011;1611;49.394;11.136;2023-03-03T09:34:59;46.70;;;25.17;;
3197;SDS011;1611;49.394;11.136;2023-03-03T09:37:48;45.55;;;25.00;;
3197;SDS011;1611;49.394;11.136;2023-03-03T09:40:25;48.08;;;25.63;;
3197;SDS011;1611;49.394;11.136;2023-03-03T09:43:12;44.83;;;23.70;;
3197;SDS011;1611;49.394;11.136;2023-03-03T09:45:53;50.22;;;26.00;;
3197;SDS011;1611;49.394;11.136;2023-03-03T09:48:32;45.08;;;24.77;;
3197;SDS011;1611;49.394;11.136;2023-03-03T09:51:20;48.10;;;25.80;;
3197;SDS011;1611;49.394;11.136;2023-03-03T09:53:56;49.43;;;26.53;;
3197;SDS011;1611;49.394;11.136;2023-03-03T09:56:34;45.97;;;24.85;;
3197;SDS011;1611;49.394;11.136;2023-03-03T09:59:14;48.67;;;24.87;;
3197;SDS011;1611;49.394;11.136;2023-03-03T10:01:56;51.03;;;25.50;;
3197;SDS011;1611;49.394;11.136;2023-03-03T10:04:41;44.57;;;24.00;;
3197;SDS011;1611;49.394;11.136;2023-03-03T10:07:17;47.03;;;24.47;;
3197;SDS011;1611;49.394;11.136;2023-03-03T10:10:05;40.97;;;24.07;;
3197;SDS011;1611;49.394;11.136;2023-03-03T10:12:50;45.93;;;24.70;;
3197;SDS011;1611;49.394;11.136;2023-03-03T10:15:28;42.77;;;24.10;;
3197;SDS011;1611;49.394;11.136;2023-03-03T10:18:07;44.27;;;24.73;;
3197;SDS011;1611;49.394;11.136;2023-03-03T10:20:46;44.97;;;24.53;;
3197;SDS011;1611;49.394;11.136;2023-03-03T10:23:28;43.90;;;24.20;;
3197;SDS011;1611;49.394;11.136;2023-03-03T10:26:20;40.70;;;23.10;;
3197;SDS011;1611;49.394;11.136;2023-03-03T10:29:14;39.63;;;22.93;;
3197;SDS011;1611;49.394;11.136;2023-03-03T10:32:03;43.03;;;23.20;;
3197;SDS011;1611;49.394;11.136;2023-03-03T10:34:52;34.43;;;20.97;;
3197;SDS011;1611;49.394;11.136;2023-03-03T10:37:30;46.23;;;25.60;;
3197;SDS011;1611;49.394;11.136;2023-03-03T10:40:07;38.20;;;24.07;;
3197;SDS011;1611;49.394;11.136;2023-03-03T10:42:49;42.50;;;23.00;;
3197;SDS011;1611;49.394;11.136;2023-03-03T10:45:38;37.57;;;22.97;;
3197;SDS011;1611;49.394;11.136;2023-03-03T10:48:17;34.07;;;21.30;;
3197;SDS011;1611;49.394;11.136;2023-03-03T10:50:53;42.63;;;23.70;;
3197;SDS011;1611;49.394;11.136;2023-03-03T10:53:28;39.07;;;22.83;;
3197;SDS011;1611;49.394;11.136;2023-03-03T10:56:04;35.57;;;23.03;;
3197;SDS011;1611;49.394;11.136;2023-03-03T10:58:45;40.00;;;23.30;;
3197;SDS011;1611;49.394;11.136;2023-03-03T11:01:24;33.27;;;20.37;;
3197;SDS011;1611;49.394;11.136;2023-03-03T11:06:52;33.87;;;21.70;;
3197;SDS011;1611;49.394;11.136;2023-03-03T11:09:28;41.03;;;22.13;;
3197;SDS011;1611;49.394;11.136;2023-03-03T11:12:10;44.73;;;23.43;;
3197;SDS011;1611;49.394;11.136;2023-03-03T11:14:52;36.17;;;22.20;;
3197;SDS011;1611;49.394;11.136;2023-03-03T11:17:42;35.47;;;21.60;;
3197;SDS011;1611;49.394;11.136;2023-03-03T11:20:23;34.93;;;22.00;;
3197;SDS011;1611;49.394;11.136;2023-03-03T11:23:00;36.57;;;21.00;;
3197;SDS011;1611;49.394;11.136;2023-03-03T11:25:42;41.27;;;23.70;;
3197;SDS011;1611;49.394;11.136;2023-03-03T11:28:20;38.17;;;23.63;;
3197;SDS011;1611;49.394;11.136;2023-03-03T11:31:06;44.30;;;26.70;;
3197;SDS011;1611;49.394;11.136;2023-03-03T11:33:44;39.47;;;23.93;;
3197;SDS011;1611;49.394;11.136;2023-03-03T11:36:19;37.80;;;23.13;;
3197;SDS011;1611;49.394;11.136;2023-03-03T11:38:50;41.33;;;24.07;;
3197;SDS011;1611;49.394;11.136;2023-03-03T11:44:09;42.60;;;23.20;;
3197;SDS011;1611;49.394;11.136;2023-03-03T11:46:45;39.33;;;23.50;;
3197;SDS011;1611;49.394;11.136;2023-03-03T11:49:17;40.67;;;23.60;;
3197;SDS011;1611;49.394;11.136;2023-03-03T11:51:52;38.63;;;24.53;;
3197;SDS011;1611;49.394;11.136;2023-03-03T11:54:29;41.77;;;25.33;;
3197;SDS011;1611;49.394;11.136;2023-03-03T11:56:58;47.57;;;25.90;;
3197;SDS011;1611;49.394;11.136;2023-03-03T12:02:49;55.53;;;23.10;;
3197;SDS011;1611;49.394;11.136;2023-03-03T12:05:44;42.13;;;24.47;;
3197;SDS011;1611;49.394;11.136;2023-03-03T12:08:27;35.60;;;23.03;;
3197;SDS011;1611;49.394;11.136;2023-03-03T12:11:02;35.70;;;22.37;;
3197;SDS011;1611;49.394;11.136;2023-03-03T12:13:41;37.47;;;21.97;;
3197;SDS011;1611;49.394;11.136;2023-03-03T12:16:16;40.50;;;22.27;;
3197;SDS011;1611;49.394;11.136;2023-03-03T12:18:54;35.70;;;21.77;;
3197;SDS011;1611;49.394;11.136;2023-03-03T12:21:38;38.93;;;22.40;;
3197;SDS011;1611;49.394;11.136;2023-03-03T12:24:18;36.17;;;21.43;;
3197;SDS011;1611;49.394;11.136;2023-03-03T12:26:58;41.33;;;22.70;;
3197;SDS011;1611;49.394;11.136;2023-03-03T12:29:38;32.90;;;20.50;;
3197;SDS011;1611;49.394;11.136;2023-03-03T12:32:13;31.57;;;20.30;;
3197;SDS011;1611;49.394;11.136;2023-03-03T12:34:51;38.37;;;21.80;;
3197;SDS011;1611;49.394;11.136;2023-03-03T12:37:26;33.50;;;21.83;;
3197;SDS011;1611;49.394;11.136;2023-03-03T12:40:11;38.97;;;22.10;;
3197;SDS011;1611;49.394;11.136;2023-03-03T12:42:49;36.73;;;21.30;;
3197;SDS011;1611;49.394;11.136;2023-03-03T12:45:36;34.10;;;22.27;;
3197;SDS011;1611;49.394;11.136;2023-03-03T12:48:14;37.33;;;21.63;;
3197;SDS011;1611;49.394;11.136;2023-03-03T12:50:49;34.03;;;20.97;;
3197;SDS011;1611;49.394;11.136;2023-03-03T12:53:29;29.07;;;20.53;;
3197;SDS011;1611;49.394;11.136;2023-03-03T12:56:04;31.87;;;20.63;;
3197;SDS011;1611;49.394;11.136;2023-03-03T12:58:36;31.00;;;21.00;;
3197;SDS011;1611;49.394;11.136;2023-03-03T13:01:12;30.73;;;21.37;;
3197;SDS011;1611;49.394;11.136;2023-03-03T13:03:49;28.90;;;19.93;;
3197;SDS011;1611;49.394;11.136;2023-03-03T13:06:25;40.80;;;20.80;;
3197;SDS011;1611;49.394;11.136;2023-03-03T13:08:57;31.30;;;19.90;;
3197;SDS011;1611;49.394;11.136;2023-03-03T13:11:39;36.77;;;20.40;;
3197;SDS011;1611;49.394;11.136;2023-03-03T13:14:21;31.73;;;19.90;;
3197;SDS011;1611;49.394;11.136;2023-03-03T13:17:00;29.83;;;19.57;;
3197;SDS011;1611;49.394;11.136;2023-03-03T13:19:36;31.50;;;19.47;;
3197;SDS011;1611;49.394;11.136;2023-03-03T13:22:09;27.23;;;19.77;;
3197;SDS011;1611;49.394;11.136;2023-03-03T13:24:41;33.63;;;21.37;;
3197;SDS011;1611;49.394;11.136;2023-03-03T13:27:21;30.13;;;20.30;;
3197;SDS011;1611;49.394;11.136;2023-03-03T13:29:53;27.07;;;19.50;;
3197;SDS011;1611;49.394;11.136;2023-03-03T13:32:27;25.93;;;19.23;;
3197;SDS011;1611;49.394;11.136;2023-03-03T13:35:02;28.90;;;19.80;;
3197;SDS011;1611;49.394;11.136;2023-03-03T13:37:34;30.23;;;20.00;;
3197;SDS011;1611;49.394;11.136;2023-03-03T13:40:12;28.40;;;20.00;;
3197;SDS011;1611;49.394;11.136;2023-03-03T13:42:43;29.63;;;18.73;;
3197;SDS011;1611;49.394;11.136;2023-03-03T13:45:16;28.50;;;19.13;;
3197;SDS011;1611;49.394;11.136;2023-03-03T13:47:46;29.47;;;19.07;;
3197;SDS011;1611;49.394;11.136;2023-03-03T13:50:19;30.87;;;20.67;;
3197;SDS011;1611;49.394;11.136;2023-03-03T13:52:56;30.83;;;19.30;;
3197;SDS011;1611;49.394;11.136;2023-03-03T13:55:34;30.37;;;19.27;;
3197;SDS011;1611;49.394;11.136;2023-03-03T13:58:07;26.50;;;17.20;;
3197;SDS011;1611;49.394;11.136;2023-03-03T14:00:43;31.40;;;17.20;;
3197;SDS011;1611;49.394;11.136;2023-03-03T14:06:12;36.60;;;18.90;;
3197;SDS011;1611;49.394;11.136;2023-03-03T14:08:58;25.93;;;17.60;;
3197;SDS011;1611;49.394;11.136;2023-03-03T14:11:33;33.60;;;17.97;;
3197;SDS011;1611;49.394;11.136;2023-03-03T14:14:10;24.43;;;16.10;;
3197;SDS011;1611;49.394;11.136;2023-03-03T14:16:48;26.47;;;16.43;;
3197;SDS011;1611;49.394;11.136;2023-03-03T14:19:18;29.03;;;17.43;;
3197;SDS011;1611;49.394;11.136;2023-03-03T14:22:04;27.93;;;15.53;;
3197;SDS011;1611;49.394;11.136;2023-03-03T14:27:22;24.83;;;14.10;;
3197;SDS011;1611;49.394;11.136;2023-03-03T14:29:50;22.30;;;14.57;;
3197;SDS011;1611;49.394;11.136;2023-03-03T14:32:20;25.13;;;15.63;;
3197;SDS011;1611;49.394;11.136;2023-03-03T14:34:56;20.80;;;14.13;;
3197;SDS011;1611;49.394;11.136;2023-03-03T14:37:24;24.87;;;15.40;;
3197;SDS011;1611;49.394;11.136;2023-03-03T14:40:15;22.97;;;14.90;;
3197;SDS011;1611;49.394;11.136;2023-03-03T14:42:46;25.37;;;15.03;;
3197;SDS011;1611;49.394;11.136;2023-03-03T14:45:19;22.30;;;14.43;;
3197;SDS011;1611;49.394;11.136;2023-03-03T14:47:54;24.37;;;14.40;;
3197;SDS011;1611;49.394;11.136;2023-03-03T14:50:29;21.73;;;14.40;;
3197;SDS011;1611;49.394;11.136;2023-03-03T14:53:03;25.97;;;14.73;;
3197;SDS011;1611;49.394;11.136;2023-03-03T14:55:39;21.93;;;13.67;;
3197;SDS011;1611;49.394;11.136;2023-03-03T14:58:07;18.37;;;12.63;;
3197;SDS011;1611;49.394;11.136;2023-03-03T15:03:51;28.83;;;15.07;;
3197;SDS011;1611;49.394;11.136;2023-03-03T15:06:28;24.10;;;14.27;;
3197;SDS011;1611;49.394;11.136;2023-03-03T15:11:53;23.17;;;14.10;;
3197;SDS011;1611;49.394;11.136;2023-03-03T15:14:28;29.80;;;13.63;;
3197;SDS011;1611;49.394;11.136;2023-03-03T15:16:56;21.87;;;13.07;;
3197;SDS011;1611;49.394;11.136;2023-03-03T15:19:43;22.97;;;13.10;;
3197;SDS011;1611;49.394;11.136;2023-03-03T15:22:21;19.47;;;13.33;;
3197;SDS011;1611;49.394;11.136;2023-03-03T15:24:59;23.40;;;13.70;;
3197;SDS011;1611;49.394;11.136;2023-03-03T15:27:34;24.53;;;14.50;;